createdAt,value
2022-09-22T00:00:59.578Z,5.60
2022-09-22T00:03:29.563Z,9.03
2022-09-22T00:06:05.962Z,7.23
2022-09-22T00:08:34.160Z,7.67
2022-09-22T00:11:14.045Z,6.17
2022-09-22T00:13:43.464Z,8.13
2022-09-22T00:16:11.238Z,6.27
2022-09-22T00:18:37.949Z,6.73
2022-09-22T00:21:09.255Z,7.07
2022-09-22T00:23:36.939Z,6.13
2022-09-22T00:26:12.248Z,6.83
2022-09-22T00:28:39.064Z,7.40
2022-09-22T00:31:10.345Z,6.07
2022-09-22T00:33:38.470Z,6.57
2022-09-22T00:36:05.288Z,6.67
2022-09-22T00:38:34.209Z,4.73
2022-09-22T00:41:01.531Z,6.33
2022-09-22T00:43:33.770Z,8.13
2022-09-22T00:46:09.428Z,8.23
2022-09-22T00:48:39.623Z,7.87
2022-09-22T00:51:07.688Z,8.20
2022-09-22T00:53:34.521Z,9.20
2022-09-22T00:56:34.976Z,7.27
2022-09-22T00:59:08.271Z,9.50
2022-09-22T01:01:36.892Z,8.57
2022-09-22T01:04:04.607Z,9.17
2022-09-22T01:06:31.318Z,9.57
2022-09-22T01:08:58.019Z,9.63
2022-09-22T01:11:25.254Z,12.47
2022-09-22T01:14:22.592Z,7.43
2022-09-22T01:16:55.821Z,10.57
2022-09-22T01:19:25.946Z,8.73
2022-09-22T01:22:20.320Z,8.90
2022-09-22T01:24:56.168Z,9.73
2022-09-22T01:27:33.028Z,10.17
2022-09-22T01:30:29.056Z,10.40
2022-09-22T01:33:14.197Z,7.97
2022-09-22T01:36:04.024Z,6.77
2022-09-22T01:38:54.214Z,8.13
2022-09-22T01:41:43.068Z,8.13
2022-09-22T01:44:22.946Z,10.97
2022-09-22T01:47:07.568Z,9.13
2022-09-22T01:49:35.276Z,7.87
2022-09-22T01:52:06.092Z,9.80
2022-09-22T01:54:36.012Z,8.80
2022-09-22T01:57:14.528Z,9.20
2022-09-22T01:59:41.291Z,10.80
2022-09-22T02:02:15.738Z,9.27
2022-09-22T02:04:46.423Z,9.50
2022-09-22T02:07:16.196Z,11.27
2022-09-22T02:09:45.619Z,8.23
2022-09-22T02:12:12.362Z,10.17
2022-09-22T02:14:39.137Z,11.90
2022-09-22T02:17:05.870Z,9.53
2022-09-22T02:19:41.409Z,11.43
2022-09-22T02:22:08.987Z,11.17
2022-09-22T02:24:37.725Z,10.50
2022-09-22T02:27:09.171Z,10.87
2022-09-22T02:29:43.758Z,12.80
2022-09-22T02:32:14.388Z,13.30
2022-09-22T02:34:41.054Z,11.57
2022-09-22T02:37:32.363Z,10.97
2022-09-22T02:40:23.279Z,10.23
2022-09-22T02:43:13.829Z,9.40
2022-09-22T02:45:49.930Z,12.13
2022-09-22T02:48:23.785Z,12.00
2022-09-22T02:50:50.733Z,14.33
2022-09-22T02:53:17.953Z,17.03
2022-09-22T02:55:44.931Z,15.30
2022-09-22T02:58:12.771Z,14.47
2022-09-22T03:00:39.817Z,15.60
2022-09-22T03:03:07.323Z,14.07
2022-09-22T03:05:34.018Z,17.60
2022-09-22T03:08:02.941Z,14.30
2022-09-22T03:10:29.717Z,14.27
2022-09-22T03:13:15.355Z,16.10
2022-09-22T03:15:42.617Z,17.10
2022-09-22T03:18:09.467Z,18.90
2022-09-22T03:20:41.135Z,19.03
2022-09-22T03:23:09.990Z,19.23
2022-09-22T03:25:36.741Z,14.47
2022-09-22T03:28:03.535Z,17.40
2022-09-22T03:30:32.886Z,16.20
2022-09-22T03:32:59.609Z,14.17
2022-09-22T03:35:28.540Z,15.97
2022-09-22T03:37:57.726Z,16.57
2022-09-22T03:40:24.534Z,16.57
2022-09-22T03:42:53.544Z,15.13
2022-09-22T03:45:20.424Z,17.37
2022-09-22T03:47:47.139Z,18.47
2022-09-22T03:50:14.237Z,21.53
2022-09-22T03:52:45.144Z,15.73
2022-09-22T03:55:11.975Z,16.47
2022-09-22T03:57:39.389Z,15.23
2022-09-22T04:00:07.311Z,16.97
2022-09-22T04:02:34.161Z,15.30
2022-09-22T04:05:03.447Z,21.03
2022-09-22T04:07:30.152Z,17.23
2022-09-22T04:09:57.621Z,19.17
2022-09-22T04:12:26.587Z,18.27
2022-09-22T04:14:55.823Z,18.93
2022-09-22T04:17:22.549Z,19.77
2022-09-22T04:19:49.699Z,17.70
2022-09-22T04:22:18.650Z,16.83
2022-09-22T04:24:45.393Z,19.33
2022-09-22T04:27:20.559Z,19.77
2022-09-22T04:29:52.379Z,17.57
2022-09-22T04:32:19.231Z,25.03
2022-09-22T04:34:46.022Z,18.57
2022-09-22T04:37:15.016Z,20.07
2022-09-22T04:39:43.968Z,21.40
2022-09-22T04:42:11.127Z,22.03
2022-09-22T04:44:37.821Z,23.57
2022-09-22T04:47:07.188Z,21.17
2022-09-22T04:49:33.912Z,23.30
2022-09-22T04:52:00.723Z,19.73
2022-09-22T04:54:27.442Z,19.20
2022-09-22T04:56:54.172Z,15.97
2022-09-22T04:59:20.870Z,17.97
2022-09-22T05:01:47.613Z,21.90
2022-09-22T05:04:18.049Z,18.30
2022-09-22T05:06:44.761Z,17.27
2022-09-22T05:09:11.469Z,27.17
2022-09-22T05:11:38.209Z,20.43
2022-09-22T05:14:04.992Z,23.30
2022-09-22T05:16:32.669Z,22.27
2022-09-22T05:18:59.528Z,15.43
2022-09-22T05:21:26.255Z,20.47
2022-09-22T05:23:53.680Z,15.33
2022-09-22T05:26:20.395Z,20.37
2022-09-22T05:28:47.109Z,17.40
2022-09-22T05:31:14.042Z,18.57
2022-09-22T05:33:41.030Z,17.10
2022-09-22T05:36:07.797Z,19.57
2022-09-22T05:38:34.564Z,20.97
2022-09-22T05:41:03.812Z,17.57
2022-09-22T05:43:30.620Z,24.03
2022-09-22T05:45:59.614Z,20.03
2022-09-22T05:48:30.384Z,18.77
2022-09-22T05:50:59.402Z,20.83
2022-09-22T05:53:26.109Z,17.07
2022-09-22T05:55:53.007Z,17.83
2022-09-22T05:58:19.717Z,21.27
2022-09-22T06:00:46.713Z,22.30
2022-09-22T06:03:13.565Z,23.17
2022-09-22T06:05:43.776Z,15.83
2022-09-22T06:08:12.704Z,15.53
2022-09-22T06:10:39.506Z,18.17
2022-09-22T06:13:11.852Z,18.60
2022-09-22T06:15:38.632Z,18.60
2022-09-22T06:18:15.270Z,17.43
2022-09-22T06:20:42.459Z,18.33
2022-09-22T06:23:12.701Z,14.97
2022-09-22T06:25:39.412Z,14.07
2022-09-22T06:28:07.293Z,14.07
2022-09-22T06:30:37.130Z,15.57
2022-09-22T06:33:03.957Z,15.40
2022-09-22T06:35:35.417Z,17.57
2022-09-22T06:38:07.540Z,18.53
2022-09-22T06:40:37.030Z,20.43
2022-09-22T06:43:07.620Z,20.60
2022-09-22T06:45:36.904Z,14.63
2022-09-22T06:48:08.976Z,19.50
2022-09-22T06:50:36.805Z,16.90
2022-09-22T06:53:04.810Z,18.53
2022-09-22T06:55:31.874Z,17.27
2022-09-22T06:58:02.869Z,22.83
2022-09-22T07:00:33.695Z,17.53
2022-09-22T07:03:11.506Z,21.23
2022-09-22T07:05:43.391Z,22.53
2022-09-22T07:08:10.102Z,19.40
2022-09-22T07:10:39.066Z,17.63
2022-09-22T07:13:06.025Z,15.93
2022-09-22T07:15:34.143Z,16.60
2022-09-22T07:18:00.904Z,15.33
2022-09-22T07:20:28.969Z,18.27
2022-09-22T07:23:00.529Z,18.37
2022-09-22T07:25:35.949Z,23.07
2022-09-22T07:28:05.327Z,18.63
2022-09-22T07:30:32.309Z,18.93
2022-09-22T07:33:00.190Z,21.10
2022-09-22T07:35:28.753Z,20.63
2022-09-22T07:37:57.039Z,20.43
2022-09-22T07:40:23.927Z,21.73
2022-09-22T07:42:50.818Z,17.07
2022-09-22T07:45:17.628Z,20.93
2022-09-22T07:48:02.758Z,18.77
2022-09-22T07:50:30.156Z,14.77
2022-09-22T07:52:59.371Z,18.37
2022-09-22T07:55:26.068Z,13.13
2022-09-22T07:57:59.567Z,14.33
2022-09-22T08:00:33.042Z,16.70
2022-09-22T08:03:01.280Z,14.13
2022-09-22T08:05:30.382Z,14.97
2022-09-22T08:08:00.846Z,13.03
2022-09-22T08:10:35.632Z,11.73
2022-09-22T08:13:07.111Z,8.67
2022-09-22T08:15:33.965Z,12.80
2022-09-22T08:18:03.807Z,14.83
2022-09-22T08:20:32.445Z,14.33
2022-09-22T08:23:00.880Z,8.23
2022-09-22T08:25:27.583Z,9.17
2022-09-22T08:27:54.528Z,11.03
2022-09-22T08:30:21.266Z,11.37
2022-09-22T08:32:50.172Z,11.17
2022-09-22T08:35:16.881Z,11.37
2022-09-22T08:37:45.805Z,9.93
2022-09-22T08:40:17.162Z,9.27
2022-09-22T08:42:45.591Z,11.40
2022-09-22T08:45:27.011Z,10.73
2022-09-22T08:48:14.836Z,8.43
2022-09-22T08:51:05.942Z,9.93
2022-09-22T08:53:37.490Z,8.93
2022-09-22T08:56:11.595Z,8.27
2022-09-22T08:58:49.667Z,8.77
2022-09-22T09:01:38.732Z,11.03
2022-09-22T09:04:34.996Z,7.20
2022-09-22T09:07:08.119Z,7.80
2022-09-22T09:09:38.576Z,10.27
2022-09-22T09:12:22.080Z,7.30
2022-09-22T09:14:54.890Z,9.10
2022-09-22T09:17:30.676Z,7.77
2022-09-22T09:20:04.738Z,6.57
2022-09-22T09:22:35.038Z,5.57
2022-09-22T09:28:02.535Z,7.13
2022-09-22T09:30:45.455Z,7.40
2022-09-22T09:33:24.135Z,5.27
2022-09-22T09:35:53.973Z,4.63
2022-09-22T09:38:29.557Z,5.43
2022-09-22T09:41:01.335Z,4.80
2022-09-22T09:43:28.371Z,4.20
2022-09-22T09:46:04.085Z,4.63
2022-09-22T09:48:42.284Z,5.17
2022-09-22T09:51:14.511Z,3.63
2022-09-22T09:53:46.479Z,3.87
2022-09-22T09:56:24.435Z,4.67
2022-09-22T09:59:20.311Z,4.83
2022-09-22T10:01:54.007Z,5.23
2022-09-22T10:04:34.224Z,3.70
2022-09-22T10:07:10.938Z,2.90
2022-09-22T10:09:37.680Z,3.37
2022-09-22T10:12:04.522Z,10.33
2022-09-22T10:14:36.832Z,3.37
2022-09-22T10:17:04.000Z,2.77
2022-09-22T10:19:34.663Z,3.40
2022-09-22T10:22:31.546Z,2.60
2022-09-22T10:25:04.902Z,2.70
2022-09-22T10:27:31.843Z,2.00
2022-09-22T10:30:25.256Z,3.17
2022-09-22T10:33:05.064Z,2.47
2022-09-22T10:35:33.731Z,1.93
2022-09-22T10:38:09.940Z,2.87
2022-09-22T10:40:40.406Z,4.87
2022-09-22T10:43:13.264Z,3.47
2022-09-22T10:45:52.274Z,1.60
2022-09-22T10:48:37.621Z,1.60
2022-09-22T10:51:09.952Z,1.63
2022-09-22T10:54:11.902Z,1.80
2022-09-22T10:56:51.796Z,1.70
2022-09-22T10:59:18.586Z,5.13
2022-09-22T11:02:06.330Z,2.20
2022-09-22T11:04:43.408Z,1.93
2022-09-22T11:07:43.987Z,2.07
2022-09-22T11:10:35.400Z,3.77
2022-09-22T11:13:15.025Z,3.03
2022-09-22T11:16:15.465Z,2.70
2022-09-22T11:18:55.961Z,1.90
2022-09-22T11:21:41.767Z,2.00
2022-09-22T11:24:30.097Z,2.23
2022-09-22T11:26:57.501Z,2.17
2022-09-22T11:29:52.138Z,3.30
2022-09-22T11:32:44.978Z,1.70
2022-09-22T11:35:34.858Z,1.60
2022-09-22T11:38:26.112Z,1.90
2022-09-22T11:41:05.014Z,4.17
2022-09-22T11:43:50.505Z,2.57
2022-09-22T11:46:23.086Z,1.80
2022-09-22T11:49:10.636Z,2.23
2022-09-22T11:52:16.511Z,2.40
2022-09-22T11:54:46.064Z,2.03
2022-09-22T11:57:19.676Z,2.10
2022-09-22T12:00:24.932Z,3.13
2022-09-22T12:03:17.129Z,2.23
2022-09-22T12:05:47.235Z,3.37
2022-09-22T12:08:17.660Z,4.83
2022-09-22T12:10:45.011Z,5.57
2022-09-22T12:13:22.894Z,7.00
2022-09-22T12:15:58.923Z,2.40
2022-09-22T12:18:46.638Z,3.70
2022-09-22T12:21:50.853Z,4.70
2022-09-22T12:24:17.567Z,2.97
2022-09-22T12:26:47.951Z,3.70
2022-09-22T12:29:14.712Z,3.73
2022-09-22T12:31:48.568Z,9.37
2022-09-22T12:34:23.665Z,5.80
2022-09-22T12:36:59.392Z,4.97
2022-09-22T12:39:31.021Z,6.10
2022-09-22T12:42:07.101Z,3.30
2022-09-22T12:44:43.103Z,3.70
2022-09-22T12:47:23.162Z,3.10
2022-09-22T12:50:00.111Z,3.73
2022-09-22T12:52:42.204Z,6.20
2022-09-22T12:55:30.145Z,3.30
2022-09-22T12:58:01.381Z,3.60
2022-09-22T13:00:38.215Z,2.60
2022-09-22T13:03:26.863Z,5.70
2022-09-22T13:05:57.790Z,2.63
2022-09-22T13:08:25.909Z,5.33
2022-09-22T13:11:06.113Z,4.00
2022-09-22T13:13:36.760Z,4.30
2022-09-22T13:16:15.773Z,2.77
2022-09-22T13:18:45.940Z,6.27
2022-09-22T13:21:14.935Z,5.43
2022-09-22T13:23:54.049Z,2.90
2022-09-22T13:26:22.881Z,3.90
2022-09-22T13:29:14.155Z,3.27
2022-09-22T13:31:45.276Z,2.47
2022-09-22T13:34:27.047Z,2.17
2022-09-22T13:37:03.725Z,3.10
2022-09-22T13:39:51.515Z,2.93
2022-09-22T13:42:32.477Z,3.93
2022-09-22T13:45:01.569Z,3.17
2022-09-22T13:47:31.284Z,4.97
2022-09-22T13:50:04.016Z,3.43
2022-09-22T13:52:32.009Z,4.03
2022-09-22T13:55:37.466Z,3.20
2022-09-22T13:58:19.228Z,3.30
2022-09-22T14:01:12.747Z,3.60
2022-09-22T14:03:42.603Z,2.60
2022-09-22T14:06:16.340Z,3.60
2022-09-22T14:08:43.544Z,4.20
2022-09-22T14:11:18.871Z,3.10
2022-09-22T14:13:55.185Z,3.90
2022-09-22T14:16:48.392Z,3.63
2022-09-22T14:19:15.782Z,5.00
2022-09-22T14:21:55.583Z,3.57
2022-09-22T14:24:22.323Z,3.37
2022-09-22T14:27:03.819Z,3.33
2022-09-22T14:29:33.735Z,5.03
2022-09-22T14:32:17.479Z,5.07
2022-09-22T14:34:52.101Z,3.57
2022-09-22T14:37:22.485Z,4.43
2022-09-22T14:39:50.808Z,3.57
2022-09-22T14:42:25.753Z,2.73
2022-09-22T14:45:10.556Z,3.47
2022-09-22T14:47:41.010Z,3.27
2022-09-22T14:50:14.388Z,4.27
2022-09-22T14:52:46.493Z,2.30
2022-09-22T14:55:24.993Z,3.23
2022-09-22T14:57:51.753Z,3.00
2022-09-22T15:00:37.333Z,3.80
2022-09-22T15:03:13.608Z,4.73
2022-09-22T15:05:44.358Z,3.37
2022-09-22T15:08:20.498Z,3.23
2022-09-22T15:10:59.771Z,2.90
2022-09-22T15:13:35.211Z,2.90
2022-09-22T15:16:02.218Z,4.30
2022-09-22T15:18:30.975Z,3.70
2022-09-22T15:20:59.813Z,5.80
2022-09-22T15:23:41.353Z,3.53
2022-09-22T15:26:21.698Z,3.10
2022-09-22T15:28:54.082Z,7.13
2022-09-22T15:31:28.218Z,3.33
2022-09-22T15:33:56.305Z,3.93
2022-09-22T15:36:25.671Z,2.97
2022-09-22T15:38:59.346Z,3.47
2022-09-22T15:41:28.583Z,2.53
2022-09-22T15:43:55.579Z,4.27
2022-09-22T15:46:33.664Z,5.00
2022-09-22T15:49:02.963Z,3.43
2022-09-22T15:51:31.640Z,3.80
2022-09-22T15:54:03.081Z,2.33
2022-09-22T15:56:32.754Z,3.33
2022-09-22T15:59:01.071Z,5.50
2022-09-22T16:02:03.779Z,2.00
2022-09-22T16:04:33.577Z,2.30
2022-09-22T16:07:04.823Z,3.00
2022-09-22T16:09:33.811Z,4.17
2022-09-22T16:12:00.802Z,2.40
2022-09-22T16:14:27.574Z,2.33
2022-09-22T16:16:54.353Z,2.77
2022-09-22T16:19:21.096Z,2.53
2022-09-22T16:21:54.295Z,4.57
2022-09-22T16:24:22.600Z,2.47
2022-09-22T16:26:52.643Z,2.33
2022-09-22T16:29:19.382Z,3.77
2022-09-22T16:31:49.056Z,5.63
2022-09-22T16:34:18.180Z,4.43
2022-09-22T16:36:45.215Z,3.00
2022-09-22T16:39:14.461Z,2.87
2022-09-22T16:41:44.254Z,2.40
2022-09-22T16:44:11.063Z,5.30
2022-09-22T16:46:41.515Z,3.70
2022-09-22T16:49:12.890Z,3.87
2022-09-22T16:51:40.983Z,7.03
2022-09-22T16:54:10.454Z,3.93
2022-09-22T16:56:37.988Z,4.50
2022-09-22T16:59:09.751Z,4.67
2022-09-22T17:01:38.390Z,8.77
2022-09-22T17:04:08.437Z,6.27
2022-09-22T17:06:36.117Z,8.20
2022-09-22T17:09:05.565Z,4.20
2022-09-22T17:11:36.371Z,3.33
2022-09-22T17:14:12.248Z,7.47
2022-09-22T17:16:43.806Z,4.20
2022-09-22T17:19:19.415Z,7.23
2022-09-22T17:21:47.616Z,10.90
2022-09-22T17:24:14.926Z,5.43
2022-09-22T17:26:49.186Z,6.27
2022-09-22T17:29:17.209Z,5.57
2022-09-22T17:31:44.558Z,4.87
2022-09-22T17:34:12.912Z,4.70
2022-09-22T17:36:39.827Z,6.43
2022-09-22T17:39:10.634Z,6.53
2022-09-22T17:41:44.336Z,6.47
2022-09-22T17:44:11.314Z,7.87
2022-09-22T17:46:58.126Z,7.63
2022-09-22T17:49:43.580Z,5.63
2022-09-22T17:52:28.648Z,9.70
2022-09-22T17:55:09.469Z,5.63
2022-09-22T17:57:39.803Z,5.47
2022-09-22T18:00:10.731Z,11.10
2022-09-22T18:02:39.988Z,5.03
2022-09-22T18:05:14.529Z,5.83
2022-09-22T18:07:43.574Z,6.00
2022-09-22T18:10:12.440Z,6.83
2022-09-22T18:12:39.517Z,10.60
2022-09-22T18:15:07.230Z,4.83
2022-09-22T18:17:43.222Z,6.53
2022-09-22T18:20:18.489Z,7.53
2022-09-22T18:22:47.998Z,5.07
2022-09-22T18:25:19.523Z,6.37
2022-09-22T18:27:48.475Z,7.60
2022-09-22T18:30:16.138Z,5.00
2022-09-22T18:32:42.939Z,7.37
2022-09-22T18:35:09.760Z,7.23
2022-09-22T18:37:36.535Z,4.70
2022-09-22T18:40:03.570Z,4.63
2022-09-22T18:42:34.612Z,4.80
2022-09-22T18:45:03.743Z,4.17
2022-09-22T18:47:30.640Z,6.90
2022-09-22T18:50:04.116Z,4.43
2022-09-22T18:52:33.682Z,8.20
2022-09-22T18:55:00.642Z,5.43
2022-09-22T18:57:29.816Z,5.17
2022-09-22T18:59:59.878Z,8.10
2022-09-22T19:02:26.824Z,7.30
2022-09-22T19:04:56.233Z,6.90
2022-09-22T19:07:42.014Z,5.47
2022-09-22T19:10:11.484Z,5.33
2022-09-22T19:12:40.449Z,5.53
2022-09-22T19:15:15.553Z,6.23
2022-09-22T19:17:44.703Z,6.27
2022-09-22T19:20:17.324Z,6.53
2022-09-22T19:22:44.381Z,5.67
2022-09-22T19:25:11.231Z,9.13
2022-09-22T19:27:39.803Z,6.70
2022-09-22T19:30:08.166Z,8.23
2022-09-22T19:32:34.972Z,6.03
2022-09-22T19:35:01.871Z,6.80
2022-09-22T19:37:31.103Z,5.43
2022-09-22T19:39:57.801Z,8.90
2022-09-22T19:42:24.620Z,7.00
2022-09-22T19:44:51.345Z,8.63
2022-09-22T19:47:18.817Z,8.27
2022-09-22T19:49:45.584Z,8.80
2022-09-22T19:52:13.342Z,7.70
2022-09-22T19:54:40.735Z,7.47
2022-09-22T19:57:10.724Z,6.67
2022-09-22T19:59:37.437Z,6.30
2022-09-22T20:02:06.048Z,8.80
2022-09-22T20:04:37.101Z,7.47
2022-09-22T20:07:08.422Z,5.97
2022-09-22T20:09:37.885Z,8.20
2022-09-22T20:12:04.732Z,7.20
2022-09-22T20:14:32.020Z,6.43
2022-09-22T20:17:05.798Z,6.03
2022-09-22T20:19:33.832Z,6.60
2022-09-22T20:22:18.820Z,7.60
2022-09-22T20:24:57.298Z,8.37
2022-09-22T20:27:26.854Z,6.47
2022-09-22T20:29:57.066Z,8.87
2022-09-22T20:32:24.867Z,9.27
2022-09-22T20:34:52.156Z,7.60
2022-09-22T20:37:18.872Z,8.73
2022-09-22T20:39:47.464Z,7.53
2022-09-22T20:42:18.179Z,7.70
2022-09-22T20:44:49.069Z,8.63
2022-09-22T20:47:21.228Z,8.10
2022-09-22T20:49:51.915Z,7.27
2022-09-22T20:52:20.174Z,8.13
2022-09-22T20:54:47.266Z,8.47
2022-09-22T20:57:14.222Z,14.27
2022-09-22T20:59:45.420Z,11.53
2022-09-22T21:02:12.729Z,8.00
2022-09-22T21:04:39.779Z,9.40
2022-09-22T21:07:06.711Z,8.07
2022-09-22T21:09:52.259Z,11.20
2022-09-22T21:12:18.987Z,9.40
2022-09-22T21:14:46.034Z,9.20
2022-09-22T21:17:13.749Z,8.23
2022-09-22T21:19:43.380Z,9.67
2022-09-22T21:22:10.396Z,9.87
2022-09-22T21:24:37.178Z,9.10
2022-09-22T21:27:04.294Z,10.33
2022-09-22T21:29:31.109Z,9.93
2022-09-22T21:31:58.070Z,8.70
2022-09-22T21:34:25.085Z,8.53
2022-09-22T21:36:51.935Z,9.43
2022-09-22T21:39:18.758Z,10.03
2022-09-22T21:41:45.710Z,7.70
2022-09-22T21:44:12.488Z,8.43
2022-09-22T21:46:41.846Z,8.53
2022-09-22T21:49:10.385Z,8.80
2022-09-22T21:51:42.335Z,8.60
2022-09-22T21:54:13.909Z,9.00
2022-09-22T21:56:42.857Z,8.53
2022-09-22T21:59:11.265Z,9.30
2022-09-22T22:01:38.833Z,8.57
2022-09-22T22:04:13.828Z,11.47
2022-09-22T22:06:47.881Z,9.80
2022-09-22T22:09:22.476Z,9.77
2022-09-22T22:11:55.612Z,8.10
2022-09-22T22:14:23.321Z,6.87
2022-09-22T22:16:51.813Z,8.60
2022-09-22T22:19:20.465Z,6.67
2022-09-22T22:21:50.789Z,10.50
2022-09-22T22:24:19.438Z,8.03
2022-09-22T22:26:54.848Z,6.07
2022-09-22T22:29:21.887Z,10.40
2022-09-22T22:31:51.921Z,8.40
2022-09-22T22:34:21.149Z,7.53
2022-09-22T22:36:48.708Z,7.90
2022-09-22T22:39:17.998Z,9.80
2022-09-22T22:41:44.815Z,6.47
2022-09-22T22:44:15.960Z,6.23
2022-09-22T22:46:45.537Z,6.87
2022-09-22T22:49:14.527Z,9.17
2022-09-22T22:51:43.165Z,9.67
2022-09-22T22:54:13.345Z,7.93
2022-09-22T22:56:43.723Z,6.20
2022-09-22T22:59:15.015Z,7.97
2022-09-22T23:01:44.011Z,8.97
2022-09-22T23:04:11.071Z,7.27
2022-09-22T23:06:44.078Z,7.97
2022-09-22T23:09:13.604Z,8.30
2022-09-22T23:11:40.452Z,10.00
2022-09-22T23:14:09.220Z,7.90
2022-09-22T23:16:43.427Z,10.20
2022-09-22T23:19:14.620Z,8.30
2022-09-22T23:21:41.549Z,7.63
2022-09-22T23:24:16.464Z,7.30
2022-09-22T23:26:46.647Z,7.97
2022-09-22T23:29:15.577Z,6.97
2022-09-22T23:31:42.420Z,8.03
2022-09-22T23:34:11.413Z,9.10
2022-09-22T23:36:39.588Z,8.23
2022-09-22T23:39:10.437Z,8.00
2022-09-22T23:41:37.224Z,8.50
2022-09-22T23:44:06.997Z,9.40
2022-09-22T23:46:34.233Z,11.47
2022-09-22T23:49:01.276Z,7.90
2022-09-22T23:51:28.334Z,9.63
2022-09-22T23:53:55.509Z,9.43
2022-09-22T23:56:22.273Z,8.63
2022-09-22T23:58:49.010Z,9.20
